Time;durP1;ratioP1;P1;durP2;ratioP2;P2;SDS_P1;SDS_P2;PMS_P1;PMS_P2;Temp;Humidity;BMP_temperature;BMP_pressure;BME280_temperature;BME280_humidity;BME280_pressure;Samples;Min_cycle;Max_cycle;Signal;HPM_P1;HPM_P2
2023/06/03 00:00:54;;;;;;;11.37;3.60;;;15.00;99.90;;;;;;5009388;28;20511;-69
2023/06/03 00:03:21;;;;;;;13.50;4.10;;;15.00;99.90;;;;;;5008300;28;20472;-70
2023/06/03 00:05:46;;;;;;;10.82;4.25;;;15.00;99.90;;;;;;5007787;28;20483;-69
2023/06/03 00:08:12;;;;;;;12.33;4.40;;;15.00;99.90;;;;;;5009060;28;20400;-69
2023/06/03 00:10:37;;;;;;;9.68;3.80;;;15.00;99.90;;;;;;5008541;28;20408;-69
2023/06/03 00:13:05;;;;;;;10.13;3.67;;;15.00;99.90;;;;;;5008741;28;20400;-70
2023/06/03 00:15:30;;;;;;;12.45;4.50;;;15.00;99.90;;;;;;5008882;28;20476;-70
2023/06/03 00:17:56;;;;;;;11.40;4.40;;;15.00;99.90;;;;;;5008659;28;20484;-70
2023/06/03 00:20:21;;;;;;;14.40;4.10;;;15.10;99.90;;;;;;5008944;28;20392;-69
2023/06/03 00:22:47;;;;;;;11.43;4.67;;;15.10;99.90;;;;;;5008742;28;20858;-70
2023/06/03 00:25:12;;;;;;;9.33;3.70;;;15.10;99.90;;;;;;5008403;28;20420;-70
2023/06/03 00:27:39;;;;;;;11.35;3.83;;;15.00;99.90;;;;;;5008621;28;20788;-70
2023/06/03 00:30:06;;;;;;;9.55;3.80;;;15.00;99.90;;;;;;5008956;28;20399;-70
2023/06/03 00:32:33;;;;;;;10.32;3.80;;;15.00;99.90;;;;;;5008151;28;20381;-69
2023/06/03 00:34:58;;;;;;;10.13;3.80;;;14.90;99.90;;;;;;5008622;28;20399;-69
2023/06/03 00:37:24;;;;;;;10.10;4.22;;;14.90;99.90;;;;;;5009150;28;20480;-69
2023/06/03 00:39:50;;;;;;;10.57;3.80;;;15.00;99.90;;;;;;5008667;28;20397;-69
2023/06/03 00:42:15;;;;;;;11.70;4.60;;;15.00;99.90;;;;;;5008507;28;21281;-69
2023/06/03 00:44:41;;;;;;;10.90;3.60;;;15.00;99.90;;;;;;5008575;28;20421;-69
2023/06/03 00:47:07;;;;;;;10.38;3.60;;;15.00;99.90;;;;;;5008123;28;20387;-69
2023/06/03 00:49:34;;;;;;;10.35;3.67;;;14.90;99.90;;;;;;5008332;28;20440;-69
2023/06/03 00:52:01;;;;;;;11.20;4.07;;;14.90;99.90;;;;;;5008486;28;20404;-69
2023/06/03 00:54:27;;;;;;;10.50;3.88;;;14.90;99.90;;;;;;5007858;28;20840;-69
2023/06/03 00:56:53;;;;;;;12.00;3.87;;;14.90;99.90;;;;;;5008397;28;20397;-69
2023/06/03 00:59:20;;;;;;;10.32;3.53;;;14.80;99.90;;;;;;5007981;28;20415;-70
2023/06/03 01:01:46;;;;;;;9.90;4.20;;;14.70;99.90;;;;;;5010062;28;20400;-69
2023/06/03 01:04:16;;;;;;;11.50;4.03;;;14.60;99.90;;;;;;5012166;28;20435;-69
2023/06/03 01:07:07;;;;;;;8.43;3.63;;;14.50;99.90;;;;;;5001869;28;20424;-69
2023/06/03 01:09:55;;;;;;;12.57;4.37;;;14.30;99.90;;;;;;5000009;28;20404;-69
2023/06/03 01:12:35;;;;;;;13.52;4.30;;;14.30;99.90;;;;;;5010516;28;20418;-69
2023/06/03 01:15:06;;;;;;;14.32;3.97;;;14.20;99.90;;;;;;5011520;28;20519;-69
2023/06/03 01:17:39;;;;;;;14.60;3.78;;;14.20;99.90;;;;;;5010764;28;20482;-69
2023/06/03 01:20:10;;;;;;;11.80;4.40;;;14.20;99.90;;;;;;5009317;28;20798;-69
2023/06/03 01:22:41;;;;;;;11.52;4.07;;;14.10;99.90;;;;;;5009910;28;20409;-69
2023/06/03 01:25:12;;;;;;;12.55;3.70;;;14.00;99.90;;;;;;5011184;28;20435;-69
2023/06/03 01:27:41;;;;;;;12.40;3.70;;;13.80;1.00;;;;;;5010049;28;20422;-69
2023/06/03 01:30:11;;;;;;;11.70;3.80;;;13.70;1.00;;;;;;5010774;28;20420;-70
2023/06/03 01:32:38;;;;;;;10.00;4.35;;;13.70;1.00;;;;;;5010950;28;20776;-69
2023/06/03 01:35:09;;;;;;;8.95;3.80;;;13.60;1.00;;;;;;5010968;28;20463;-69
2023/06/03 01:37:35;;;;;;;11.00;3.70;;;13.50;1.00;;;;;;5010532;28;20448;-69
2023/06/03 01:40:03;;;;;;;10.63;3.67;;;13.50;1.00;;;;;;5011000;28;20464;-69
2023/06/03 01:42:28;;;;;;;11.63;3.70;;;13.50;1.00;;;;;;5010943;28;20420;-69
2023/06/03 01:44:56;;;;;;;10.40;4.05;;;13.50;1.00;;;;;;5011405;28;20426;-69
2023/06/03 01:47:22;;;;;;;10.80;3.60;;;13.50;1.00;;;;;;5011293;28;20424;-69
2023/06/03 01:49:47;;;;;;;10.57;4.15;;;13.50;1.00;;;;;;5011185;28;20428;-70
2023/06/03 01:52:13;;;;;;;11.77;4.10;;;13.50;1.00;;;;;;5011047;28;20423;-69
2023/06/03 01:54:38;;;;;;;11.40;4.10;;;13.50;1.00;;;;;;5010743;28;20412;-69
2023/06/03 01:57:05;;;;;;;10.50;3.70;;;13.50;1.00;;;;;;5008879;28;20401;-69
2023/06/03 01:59:31;;;;;;;12.13;4.00;;;13.40;1.00;;;;;;5010751;28;20405;-69
2023/06/03 02:01:57;;;;;;;9.30;3.97;;;13.30;1.00;;;;;;5010417;28;20399;-69
2023/06/03 02:04:23;;;;;;;14.20;4.53;;;13.30;1.00;;;;;;5010446;28;20456;-70
2023/06/03 02:06:51;;;;;;;10.05;4.05;;;13.30;1.00;;;;;;5009693;28;20409;-69
2023/06/03 02:09:17;;;;;;;10.90;4.03;;;13.30;1.00;;;;;;5009332;28;20475;-70
2023/06/03 02:11:44;;;;;;;9.88;3.80;;;13.20;1.00;;;;;;5009365;28;20412;-69
2023/06/03 02:14:11;;;;;;;10.75;4.05;;;13.10;35.60;;;;;;5011034;28;20392;-69
2023/06/03 02:16:37;;;;;;;9.45;4.05;;;13.10;28.90;;;;;;5010692;28;20409;-69
2023/06/03 02:19:10;;;;;;;11.73;3.83;;;13.20;13.00;;;;;;5010378;28;20857;-69
2023/06/03 02:21:36;;;;;;;11.00;3.80;;;13.20;19.20;;;;;;5009523;28;20755;-69
2023/06/03 02:24:01;;;;;;;10.40;3.87;;;13.10;43.00;;;;;;5010746;28;20404;-69
2023/06/03 02:26:28;;;;;;;8.70;3.80;;;13.10;58.00;;;;;;5010602;28;20751;-69
2023/06/03 02:28:56;;;;;;;10.65;4.00;;;13.00;99.90;;;;;;5010847;28;20389;-69
2023/06/03 02:31:22;;;;;;;8.90;3.90;;;13.10;76.60;;;;;;5010644;28;20431;-69
2023/06/03 02:33:47;;;;;;;8.73;3.53;;;13.10;77.30;;;;;;5010564;28;20428;-69
2023/06/03 02:36:14;;;;;;;11.60;4.00;;;13.20;1.00;;;;;;5016195;28;20397;-69
2023/06/03 02:38:41;;;;;;;8.10;3.72;;;13.30;1.00;;;;;;4997470;28;20878;-69
2023/06/03 02:41:06;;;;;;;9.95;3.55;;;13.40;1.00;;;;;;5010497;28;20768;-69
2023/06/03 02:43:33;;;;;;;10.00;3.60;;;13.40;1.00;;;;;;5009455;28;20432;-69
2023/06/03 02:45:59;;;;;;;11.05;3.83;;;13.50;1.00;;;;;;5009550;28;20425;-69
2023/06/03 02:48:24;;;;;;;10.90;3.60;;;13.50;1.00;;;;;;5009393;28;20906;-69
2023/06/03 02:50:50;;;;;;;14.57;4.07;;;13.50;1.00;;;;;;5008948;28;20428;-69
2023/06/03 02:53:17;;;;;;;10.30;4.30;;;13.60;1.00;;;;;;5009927;28;20413;-69
2023/06/03 02:55:43;;;;;;;9.93;3.92;;;13.60;1.00;;;;;;5011333;28;20471;-69
2023/06/03 02:58:08;;;;;;;8.00;3.55;;;13.70;1.00;;;;;;5010537;28;20416;-69
2023/06/03 03:00:34;;;;;;;14.43;3.60;;;13.70;1.00;;;;;;5009137;28;20504;-69
2023/06/03 03:03:01;;;;;;;12.07;4.00;;;13.60;1.00;;;;;;5009156;28;20411;-70
2023/06/03 03:05:26;;;;;;;13.23;4.40;;;13.70;1.00;;;;;;5009326;28;20456;-70
2023/06/03 03:07:52;;;;;;;10.10;4.20;;;13.60;1.00;;;;;;5009950;28;20408;-70
2023/06/03 03:10:17;;;;;;;11.10;4.60;;;13.50;1.00;;;;;;5008939;28;20836;-70
2023/06/03 03:12:43;;;;;;;11.68;4.30;;;13.50;1.00;;;;;;5010071;28;20488;-69
2023/06/03 03:15:09;;;;;;;9.43;4.00;;;13.50;1.00;;;;;;5008684;28;20424;-70
2023/06/03 03:17:34;;;;;;;12.27;4.25;;;13.50;1.00;;;;;;5008787;28;20425;-70
2023/06/03 03:20:00;;;;;;;10.47;4.10;;;13.50;1.00;;;;;;5009611;28;20397;-69
2023/06/03 03:22:27;;;;;;;14.30;4.17;;;13.40;1.00;;;;;;5009530;28;20847;-67
2023/06/03 03:24:55;;;;;;;10.40;4.00;;;13.30;1.00;;;;;;5009232;28;20424;-69
2023/06/03 03:27:20;;;;;;;9.38;3.22;;;13.30;1.00;;;;;;5008547;28;20555;-69
2023/06/03 03:29:46;;;;;;;12.70;4.57;;;13.20;1.00;;;;;;5005383;28;20974;-69
2023/06/03 03:32:12;;;;;;;7.80;3.35;;;13.10;1.00;;;;;;5008680;28;20416;-69
2023/06/03 03:34:38;;;;;;;11.77;4.23;;;13.00;1.00;;;;;;5007470;28;20408;-69
2023/06/03 03:37:04;;;;;;;11.00;4.13;;;12.80;1.00;;;;;;5004197;28;20622;-69
2023/06/03 03:39:30;;;;;;;9.60;4.00;;;12.90;53.90;;;;;;4993380;28;20406;-69
2023/06/03 03:41:56;;;;;;;12.77;4.30;;;12.90;99.90;;;;;;5004388;28;20507;-69
2023/06/03 03:44:28;;;;;;;12.00;4.00;;;12.80;99.90;;;;;;5009075;28;20420;-70
2023/06/03 03:47:03;;;;;;;11.57;4.97;;;12.90;99.90;;;;;;5008761;28;20475;-70
2023/06/03 03:49:31;;;;;;;10.10;3.67;;;12.90;99.90;;;;;;5008356;28;20531;-70
2023/06/03 03:52:01;;;;;;;10.05;3.88;;;12.90;99.90;;;;;;5007425;28;20416;-69
2023/06/03 03:54:27;;;;;;;12.20;3.97;;;12.90;99.90;;;;;;5008209;28;20416;-69
2023/06/03 03:56:55;;;;;;;12.23;4.30;;;12.80;99.90;;;;;;5007595;28;21020;-69
2023/06/03 03:59:20;;;;;;;11.85;4.50;;;12.90;99.90;;;;;;5008372;28;20937;-70
2023/06/03 04:01:46;;;;;;;12.70;4.60;;;12.90;99.90;;;;;;5008140;28;20443;-69
2023/06/03 04:04:30;;;;;;;14.68;4.63;;;12.90;99.90;;;;;;5008463;28;20404;-69
2023/06/03 04:06:56;;;;;;;11.05;4.32;;;13.00;99.90;;;;;;5008482;28;20909;-69
2023/06/03 04:09:21;;;;;;;12.83;4.67;;;13.10;99.90;;;;;;5007565;28;20412;-69
2023/06/03 04:11:47;;;;;;;10.90;4.33;;;13.20;99.90;;;;;;5006676;28;20417;-69
2023/06/03 04:14:15;;;;;;;10.40;4.72;;;13.20;99.90;;;;;;5013452;28;20420;-69
2023/06/03 04:16:48;;;;;;;11.68;4.55;;;13.30;99.90;;;;;;5008349;28;20484;-69
2023/06/03 04:19:36;;;;;;;10.43;3.80;;;13.40;12.80;;;;;;5008396;28;20401;-69
2023/06/03 04:22:06;;;;;;;12.15;4.57;;;13.50;1.00;;;;;;5008524;28;20466;-69
2023/06/03 04:24:34;;;;;;;15.15;5.50;;;13.50;1.00;;;;;;5008248;28;20788;-70
2023/06/03 04:27:02;;;;;;;16.05;6.65;;;13.60;1.00;;;;;;5008320;28;20439;-70
2023/06/03 04:29:28;;;;;;;10.02;5.03;;;13.70;1.00;;;;;;5008663;28;20411;-69
2023/06/03 04:31:53;;;;;;;10.50;4.20;;;13.70;1.00;;;;;;5009079;28;20836;-69
2023/06/03 04:34:19;;;;;;;10.50;3.87;;;13.80;1.00;;;;;;5008504;28;20488;-69
2023/06/03 04:36:44;;;;;;;13.00;3.80;;;13.80;1.00;;;;;;5003159;28;20412;-69
2023/06/03 04:39:11;;;;;;;10.47;4.20;;;13.90;1.00;;;;;;5006716;28;20427;-69
2023/06/03 04:41:37;;;;;;;12.45;4.20;;;14.00;1.00;;;;;;5006779;28;20416;-69
2023/06/03 04:44:03;;;;;;;10.70;3.53;;;14.20;1.00;;;;;;5007190;28;20416;-69
2023/06/03 04:46:29;;;;;;;12.27;4.50;;;14.20;1.00;;;;;;5007083;28;20746;-69
2023/06/03 04:49:01;;;;;;;10.80;4.55;;;14.30;1.00;;;;;;5011945;28;20416;-70
2023/06/03 04:51:33;;;;;;;9.02;3.90;;;14.40;1.00;;;;;;5010925;28;20408;-70
2023/06/03 04:53:59;;;;;;;12.27;4.00;;;14.60;1.00;;;;;;5007072;28;20451;-69
2023/06/03 04:56:24;;;;;;;9.33;4.00;;;14.80;1.00;;;;;;5011864;28;20440;-70
2023/06/03 04:58:54;;;;;;;9.07;4.07;;;15.30;99.90;;;;;;5011120;28;20484;-70
2023/06/03 05:01:23;;;;;;;9.57;3.90;;;16.20;99.90;;;;;;5011416;28;20504;-70
2023/06/03 05:03:50;;;;;;;11.52;4.30;;;17.10;99.90;;;;;;5010900;28;20404;-68
2023/06/03 05:06:15;;;;;;;11.45;3.60;;;18.00;99.90;;;;;;5010173;28;20490;-69
2023/06/03 05:08:41;;;;;;;7.77;3.63;;;18.60;99.90;;;;;;4994001;28;20414;-68
2023/06/03 05:11:07;;;;;;;9.83;3.70;;;19.10;99.90;;;;;;5001681;28;20833;-68
2023/06/03 05:13:34;;;;;;;12.93;4.30;;;19.40;99.90;;;;;;5010201;28;20519;-68
2023/06/03 05:16:00;;;;;;;13.30;4.00;;;20.00;99.90;;;;;;5009170;28;20412;-68
2023/06/03 05:18:26;;;;;;;11.10;4.20;;;20.30;99.90;;;;;;5011098;28;20409;-68
2023/06/03 05:20:51;;;;;;;13.13;4.50;;;19.90;99.90;;;;;;5011682;28;20445;-68
2023/06/03 05:23:17;;;;;;;13.10;3.70;;;20.10;99.90;;;;;;5010784;28;20496;-68
2023/06/03 05:25:42;;;;;;;9.47;3.67;;;20.10;99.90;;;;;;5006353;28;20424;-68
2023/06/03 05:28:08;;;;;;;9.53;4.00;;;19.80;99.90;;;;;;5010540;28;20408;-68
2023/06/03 05:30:33;;;;;;;7.97;3.30;;;19.90;99.90;;;;;;5010798;28;20919;-68
2023/06/03 05:32:59;;;;;;;9.57;3.10;;;20.50;99.90;;;;;;5011376;28;20408;-68
2023/06/03 05:35:24;;;;;;;12.50;4.10;;;21.00;99.90;;;;;;5010381;28;20392;-69
2023/06/03 05:37:50;;;;;;;10.30;3.72;;;21.50;99.90;;;;;;5007286;28;20767;-68
2023/06/03 05:40:15;;;;;;;11.02;4.70;;;22.60;99.90;;;;;;5011471;28;20423;-68
2023/06/03 05:42:41;;;;;;;9.73;3.75;;;23.20;99.90;;;;;;5010095;28;20417;-68
2023/06/03 05:45:07;;;;;;;10.02;3.80;;;23.40;99.90;;;;;;5010232;28;20895;-68
2023/06/03 05:47:33;;;;;;;11.40;3.50;;;23.60;99.90;;;;;;5012761;28;20474;-68
2023/06/03 05:49:58;;;;;;;11.47;4.27;;;23.70;99.90;;;;;;5016017;28;20436;-69
2023/06/03 05:52:25;;;;;;;10.13;4.13;;;23.70;99.90;;;;;;5011118;28;20816;-69
2023/06/03 05:54:51;;;;;;;12.00;3.90;;;22.90;99.90;;;;;;5011014;28;20404;-69
2023/06/03 05:57:17;;;;;;;10.82;3.97;;;22.60;99.90;;;;;;4994924;28;20799;-68
2023/06/03 05:59:43;;;;;;;10.57;4.20;;;22.60;99.90;;;;;;5010634;28;20710;-68
2023/06/03 06:02:08;;;;;;;13.40;3.95;;;23.00;99.90;;;;;;5011186;28;20393;-68
2023/06/03 06:04:34;;;;;;;10.67;3.80;;;23.60;99.90;;;;;;5011383;28;20482;-68
2023/06/03 06:06:59;;;;;;;9.30;3.90;;;24.30;99.90;;;;;;5026185;28;20950;-69
2023/06/03 06:09:25;;;;;;;10.70;3.70;;;25.40;99.90;;;;;;5012146;28;20779;-69
2023/06/03 06:11:50;;;;;;;10.15;4.00;;;25.90;99.90;;;;;;5011496;28;20388;-69
2023/06/03 06:14:16;;;;;;;10.53;4.40;;;25.40;99.90;;;;;;5011336;28;20483;-69
2023/06/03 06:16:43;;;;;;;8.57;3.37;;;25.10;99.90;;;;;;5011111;28;20411;-69
2023/06/03 06:19:09;;;;;;;9.83;3.40;;;25.40;99.90;;;;;;5011540;28;20383;-69
2023/06/03 06:21:36;;;;;;;10.30;3.60;;;25.20;99.90;;;;;;5010998;28;20447;-69
2023/06/03 06:24:01;;;;;;;9.95;3.70;;;25.30;99.90;;;;;;5011090;28;20419;-69
2023/06/03 06:26:27;;;;;;;11.65;4.38;;;26.40;99.90;;;;;;5011104;28;20404;-69
2023/06/03 06:28:53;;;;;;;11.00;4.07;;;26.50;99.90;;;;;;5011319;28;20431;-69
2023/06/03 06:31:18;;;;;;;10.80;4.07;;;26.70;99.90;;;;;;5010179;28;20478;-69
2023/06/03 06:33:47;;;;;;;8.57;3.85;;;26.80;99.90;;;;;;5009322;28;20879;-69
2023/06/03 06:36:28;;;;;;;9.23;3.70;;;26.40;99.90;;;;;;5008656;28;20412;-70
2023/06/03 06:38:54;;;;;;;8.80;3.60;;;27.10;99.90;;;;;;4991441;28;20434;-69
2023/06/03 06:41:21;;;;;;;10.23;3.90;;;27.50;99.90;;;;;;5003289;28;20464;-69
2023/06/03 06:43:46;;;;;;;12.75;4.28;;;27.60;99.90;;;;;;5003739;28;20403;-69
2023/06/03 06:46:12;;;;;;;9.95;3.85;;;26.90;99.90;;;;;;5005527;28;20409;-69
2023/06/03 06:48:40;;;;;;;9.33;3.70;;;27.20;99.90;;;;;;5009921;28;20756;-69
2023/06/03 06:51:06;;;;;;;9.65;4.05;;;27.80;99.90;;;;;;5005068;28;20399;-69
2023/06/03 06:53:34;;;;;;;12.13;4.00;;;28.60;99.90;;;;;;5010059;28;20583;-69
2023/06/03 06:56:07;;;;;;;8.45;3.40;;;28.20;99.90;;;;;;5008817;28;20435;-75
2023/06/03 06:58:36;;;;;;;9.02;3.90;;;28.50;99.90;;;;;;4990621;28;20405;-75
2023/06/03 07:01:05;;;;;;;9.30;3.92;;;28.80;99.90;;;;;;5000374;28;20423;-75
2023/06/03 07:03:32;;;;;;;10.27;4.35;;;28.30;99.90;;;;;;5009841;28;20507;-75
2023/06/03 07:05:58;;;;;;;10.07;3.50;;;28.00;99.90;;;;;;4993567;28;20773;-75
2023/06/03 07:08:26;;;;;;;9.13;3.30;;;28.10;99.90;;;;;;4992424;28;20417;-75
2023/06/03 07:10:59;;;;;;;12.25;3.85;;;27.80;99.90;;;;;;5005626;28;20417;-75
2023/06/03 07:13:26;;;;;;;10.50;3.92;;;27.90;99.90;;;;;;4990029;28;20414;-75
2023/06/03 07:15:52;;;;;;;8.88;3.90;;;27.90;99.90;;;;;;4991372;28;20382;-75
2023/06/03 07:18:18;;;;;;;13.07;3.90;;;29.00;99.90;;;;;;5004873;28;20511;-74
2023/06/03 07:20:46;;;;;;;11.13;3.50;;;29.70;99.90;;;;;;5009757;28;20400;-74
2023/06/03 07:23:18;;;;;;;9.05;3.70;;;30.10;99.90;;;;;;5016933;28;20389;-75
2023/06/03 07:25:46;;;;;;;10.98;3.70;;;29.60;99.90;;;;;;5032860;28;20436;-75
2023/06/03 07:28:17;;;;;;;9.70;3.40;;;29.60;99.90;;;;;;5019172;28;20413;-75
2023/06/03 07:30:44;;;;;;;10.83;3.80;;;29.40;99.90;;;;;;5011330;28;20879;-75
2023/06/03 07:33:21;;;;;;;9.43;3.97;;;29.90;99.90;;;;;;5010639;28;20389;-75
2023/06/03 07:35:55;;;;;;;10.23;4.40;;;29.40;99.90;;;;;;5009338;28;20424;-75
2023/06/03 07:38:55;;;;;;;9.95;4.47;;;29.50;99.90;;;;;;5008908;28;20416;-75
2023/06/03 07:41:35;;;;;;;11.10;4.40;;;29.50;99.90;;;;;;4998244;28;20752;-75
2023/06/03 07:44:00;;;;;;;8.48;4.07;;;30.90;99.90;;;;;;5009726;28;20870;-76
2023/06/03 07:46:40;;;;;;;10.40;4.13;;;31.10;99.90;;;;;;5008312;28;20412;-75
2023/06/03 07:49:14;;;;;;;10.27;4.78;;;30.50;99.90;;;;;;5007168;28;20452;-75
2023/06/03 07:51:48;;;;;;;8.90;4.00;;;31.10;99.90;;;;;;5006411;28;20876;-74
2023/06/03 07:54:14;;;;;;;9.07;4.00;;;30.90;99.90;;;;;;5009022;28;20404;-75
2023/06/03 07:56:40;;;;;;;9.32;3.70;;;30.60;99.90;;;;;;5009637;28;20451;-76
2023/06/03 07:59:09;;;;;;;13.68;4.18;;;31.00;99.90;;;;;;5009283;28;20752;-76
2023/06/03 08:01:36;;;;;;;8.98;4.20;;;31.10;99.90;;;;;;5009161;28;20411;-75
2023/06/03 08:04:22;;;;;;;13.03;4.60;;;31.30;99.90;;;;;;5008312;28;20763;-76
2023/06/03 08:06:52;;;;;;;8.67;3.83;;;31.60;99.90;;;;;;5008927;28;20467;-75
2023/06/03 08:09:23;;;;;;;9.98;4.20;;;31.20;99.90;;;;;;5006601;28;20516;-75
2023/06/03 08:11:50;;;;;;;8.83;3.80;;;31.40;99.90;;;;;;5009606;28;20756;-76
2023/06/03 08:14:16;;;;;;;10.40;5.07;;;31.60;99.90;;;;;;5009553;28;20732;-76
2023/06/03 08:16:43;;;;;;;15.13;4.33;;;31.30;99.90;;;;;;5009039;28;20900;-76
2023/06/03 08:19:13;;;;;;;11.50;3.83;;;31.70;99.90;;;;;;5007728;28;20492;-76
2023/06/03 08:21:39;;;;;;;9.30;3.97;;;31.20;99.90;;;;;;5002249;28;20409;-76
2023/06/03 08:24:05;;;;;;;8.90;4.40;;;31.20;99.90;;;;;;4989853;28;20760;-76
2023/06/03 08:26:31;;;;;;;10.15;4.18;;;31.50;99.90;;;;;;4989518;28;20474;-76
2023/06/03 08:28:58;;;;;;;9.43;4.00;;;32.50;99.90;;;;;;5005993;28;20392;-76
2023/06/03 08:31:26;;;;;;;10.13;4.20;;;32.80;99.90;;;;;;5008903;28;20416;-76
2023/06/03 08:33:52;;;;;;;10.60;4.50;;;32.60;99.90;;;;;;5010953;28;20393;-76
2023/06/03 08:36:18;;;;;;;9.63;4.30;;;32.60;99.90;;;;;;5009770;28;20404;-74
2023/06/03 08:38:44;;;;;;;9.50;4.13;;;32.30;99.90;;;;;;5009336;28;20411;-70
2023/06/03 08:41:10;;;;;;;10.63;4.80;;;32.00;99.90;;;;;;5009381;28;20764;-69
2023/06/03 08:43:47;;;;;;;9.37;3.93;;;32.70;99.90;;;;;;5016030;28;20888;-70
2023/06/03 08:46:22;;;;;;;11.48;4.85;;;32.50;99.90;;;;;;5028667;28;20403;-69
2023/06/03 08:49:21;;;;;;;11.60;4.30;;;33.00;99.90;;;;;;5023656;28;20413;-69
2023/06/03 08:51:52;;;;;;;11.50;4.55;;;33.40;99.90;;;;;;5008833;28;20397;-70
2023/06/03 08:54:21;;;;;;;9.70;4.40;;;32.60;99.90;;;;;;5008508;28;20389;-69
2023/06/03 08:56:56;;;;;;;9.23;4.30;;;32.00;99.90;;;;;;5008764;28;20399;-69
2023/06/03 08:59:24;;;;;;;9.97;4.30;;;31.90;99.90;;;;;;5008450;28;20486;-69
2023/06/03 09:01:55;;;;;;;9.77;4.38;;;32.00;99.90;;;;;;5016164;28;20373;-70
2023/06/03 09:04:21;;;;;;;10.32;3.92;;;31.20;99.90;;;;;;5028134;28;20428;-70
2023/06/03 09:06:48;;;;;;;9.70;4.32;;;31.50;99.90;;;;;;5010532;28;20467;-69
2023/06/03 09:09:15;;;;;;;11.30;4.22;;;32.00;99.90;;;;;;5010617;28;20388;-69
2023/06/03 09:11:43;;;;;;;9.65;4.40;;;32.20;99.90;;;;;;5009193;28;20435;-70
2023/06/03 09:14:10;;;;;;;9.80;4.70;;;32.60;99.90;;;;;;5009262;28;20800;-70
2023/06/03 09:16:36;;;;;;;9.50;4.70;;;32.10;99.90;;;;;;5008368;28;20412;-70
2023/06/03 09:19:03;;;;;;;9.73;4.75;;;31.50;99.90;;;;;;5009697;28;20431;-70
2023/06/03 09:21:29;;;;;;;12.82;5.00;;;31.70;99.90;;;;;;5008726;28;20424;-70
2023/06/03 09:23:55;;;;;;;13.02;4.80;;;32.00;99.90;;;;;;5009562;28;20747;-70
2023/06/03 09:26:21;;;;;;;12.10;5.30;;;32.70;99.90;;;;;;5009401;28;20401;-70
2023/06/03 09:28:47;;;;;;;9.90;5.30;;;32.90;99.90;;;;;;5010076;28;20402;-70
2023/06/03 09:31:14;;;;;;;11.77;5.47;;;;;;;;;;5011676;28;20397;-70
2023/06/03 09:33:43;;;;;;;9.80;4.40;;;33.60;1.00;;;;;;5012630;28;20412;-70
2023/06/03 09:36:15;;;;;;;10.80;4.73;;;34.00;1.00;;;;;;5012211;28;20484;-70
2023/06/03 09:38:54;;;;;;;10.27;4.80;;;33.50;1.00;;;;;;5012053;28;20416;-69
2023/06/03 09:41:26;;;;;;;9.90;4.60;;;33.90;1.00;;;;;;5012339;28;20386;-69
2023/06/03 09:44:03;;;;;;;11.73;5.03;;;33.50;1.00;;;;;;5012520;28;20484;-70
2023/06/03 09:46:33;;;;;;;11.40;4.80;;;33.40;1.00;;;;;;5010235;28;20772;-70
2023/06/03 09:49:09;;;;;;;10.65;4.75;;;32.80;1.00;;;;;;5011382;28;20499;-70
2023/06/03 09:51:45;;;;;;;10.73;5.00;;;32.50;1.00;;;;;;5011965;28;20400;-70
2023/06/03 09:54:13;;;;;;;12.35;4.40;;;32.60;1.00;;;;;;5011995;28;20408;-70
2023/06/03 09:56:41;;;;;;;9.88;3.80;;;32.50;1.00;;;;;;5011804;28;20744;-70
2023/06/03 09:59:19;;;;;;;12.38;4.68;;;32.00;1.00;;;;;;5011027;28;20385;-70
2023/06/03 10:01:47;;;;;;;10.50;5.07;;;32.50;1.00;;;;;;5011482;28;20407;-70
2023/06/03 10:04:20;;;;;;;9.60;4.97;;;33.40;1.00;;;;;;5011206;28;20404;-70
2023/06/03 10:07:05;;;;;;;11.83;4.50;;;32.20;1.00;;;;;;5009841;28;21499;-70
2023/06/03 10:09:30;;;;;;;9.70;4.65;;;31.70;1.00;;;;;;5011212;28;20480;-70
2023/06/03 10:11:56;;;;;;;10.33;4.50;;;32.50;1.00;;;;;;5011670;28;20389;-70
2023/06/03 10:14:26;;;;;;;9.68;4.13;;;33.10;1.00;;;;;;5011897;28;20383;-70
2023/06/03 10:17:03;;;;;;;9.33;4.60;;;33.30;1.00;;;;;;5011709;28;20404;-70
2023/06/03 10:19:31;;;;;;;11.20;4.50;;;32.50;1.00;;;;;;5011236;28;20488;-70
2023/06/03 10:21:57;;;;;;;13.57;5.30;;;31.80;1.00;;;;;;5010982;28;20419;-70
2023/06/03 10:24:24;;;;;;;9.37;4.50;;;31.80;1.00;;;;;;5012064;28;20456;-70
2023/06/03 10:26:50;;;;;;;14.38;5.47;;;31.70;1.00;;;;;;5011161;28;20758;-70
2023/06/03 10:29:16;;;;;;;11.55;4.60;;;31.80;1.00;;;;;;5011042;28;20832;-70
2023/06/03 10:31:45;;;;;;;10.05;4.10;;;31.10;1.00;;;;;;5011250;28;20468;-70
2023/06/03 10:34:15;;;;;;;9.70;4.75;;;30.20;1.00;;;;;;5013775;28;20408;-70
2023/06/03 10:36:42;;;;;;;10.75;5.20;;;29.90;1.00;;;;;;5031462;28;20393;-70
2023/06/03 10:39:11;;;;;;;10.38;4.78;;;29.30;99.90;;;;;;5021117;28;20407;-70
2023/06/03 10:41:38;;;;;;;9.77;5.05;;;29.30;99.90;;;;;;5011167;28;20404;-70
2023/06/03 10:44:04;;;;;;;11.97;5.50;;;29.50;99.90;;;;;;5011369;28;20389;-70
2023/06/03 10:46:31;;;;;;;11.97;4.60;;;29.30;99.90;;;;;;5011323;28;20397;-70
2023/06/03 10:49:00;;;;;;;10.52;5.20;;;29.30;99.90;;;;;;5011532;28;20421;-70
2023/06/03 10:52:08;;;;;;;9.60;4.80;;;28.90;99.90;;;;;;5011483;28;20425;-70
2023/06/03 10:54:59;;;;;;;10.43;4.45;;;28.80;99.90;;;;;;5009747;28;20634;-70
2023/06/03 10:57:57;;;;;;;10.55;4.55;;;28.60;99.90;;;;;;5011163;28;20404;-70
2023/06/03 11:00:58;;;;;;;10.75;4.53;;;28.50;99.90;;;;;;5009845;28;20448;-70
2023/06/03 11:03:54;;;;;;;9.95;4.60;;;28.50;99.90;;;;;;5010976;28;20428;-70
2023/06/03 11:06:26;;;;;;;12.18;5.47;;;28.80;99.90;;;;;;5010351;28;20404;-70
2023/06/03 11:08:59;;;;;;;10.35;5.00;;;27.90;99.90;;;;;;5010946;28;20400;-70
2023/06/03 11:11:52;;;;;;;10.30;5.40;;;28.10;99.90;;;;;;5010785;28;20473;-70
2023/06/03 11:14:24;;;;;;;11.30;5.00;;;28.40;1.00;;;;;;5010065;28;20392;-70
2023/06/03 11:16:56;;;;;;;15.95;5.32;;;28.70;1.00;;;;;;5010325;28;20392;-70
2023/06/03 11:19:35;;;;;;;10.63;5.40;;;28.70;1.00;;;;;;5010650;28;20392;-70
2023/06/03 11:22:02;;;;;;;10.52;4.70;;;28.40;1.00;;;;;;5009971;28;20392;-70
2023/06/03 11:24:43;;;;;;;10.88;4.68;;;28.40;1.00;;;;;;5009858;28;20440;-70
2023/06/03 11:27:14;;;;;;;10.73;5.40;;;28.30;1.00;;;;;;5009803;28;20491;-70
2023/06/03 11:29:49;;;;;;;12.80;4.87;;;28.30;1.00;;;;;;5010316;28;20819;-70
2023/06/03 11:32:19;;;;;;;9.60;5.20;;;28.40;1.00;;;;;;5010191;28;20393;-70
2023/06/03 11:34:47;;;;;;;13.03;5.23;;;28.60;1.00;;;;;;5008967;28;20416;-70
2023/06/03 11:37:17;;;;;;;9.30;4.80;;;28.50;1.00;;;;;;5009986;28;20393;-70
2023/06/03 11:40:08;;;;;;;10.20;4.95;;;29.00;1.00;;;;;;5010252;28;20741;-70
2023/06/03 11:42:49;;;;;;;14.15;5.55;;;29.50;1.00;;;;;;5009654;28;20476;-70
2023/06/03 11:45:29;;;;;;;11.97;5.33;;;29.30;1.00;;;;;;5009669;28;20499;-70
2023/06/03 11:48:18;;;;;;;16.13;5.00;;;29.40;1.00;;;;;;5010048;28;20503;-70
2023/06/03 11:50:54;;;;;;;11.90;5.05;;;29.40;1.00;;;;;;5010083;28;20923;-69
2023/06/03 11:53:37;;;;;;;9.48;4.65;;;29.80;1.00;;;;;;5009233;28;20871;-69
2023/06/03 11:56:11;;;;;;;13.32;4.82;;;29.00;1.00;;;;;;5009377;28;20761;-69
2023/06/03 11:58:37;;;;;;;9.27;4.60;;;28.60;1.00;;;;;;5009568;28;20457;-69
2023/06/03 12:01:11;;;;;;;12.38;4.78;;;28.70;1.00;;;;;;5009875;28;20412;-69
2023/06/03 12:03:36;;;;;;;11.73;4.65;;;29.00;1.00;;;;;;5010003;28;20393;-69
2023/06/03 12:06:03;;;;;;;10.40;4.20;;;28.80;1.00;;;;;;5023068;28;20432;-68
2023/06/03 12:08:46;;;;;;;10.02;4.88;;;28.40;1.00;;;;;;5025382;28;20405;-69
2023/06/03 12:11:32;;;;;;;10.77;5.30;;;28.80;1.00;;;;;;5013122;28;20403;-69
2023/06/03 12:13:58;;;;;;;10.98;4.90;;;29.00;1.00;;;;;;5013034;28;20404;-69
2023/06/03 12:16:28;;;;;;;10.60;4.80;;;28.70;1.00;;;;;;5012974;28;20389;-69
2023/06/03 12:18:54;;;;;;;9.85;5.10;;;28.40;1.00;;;;;;5011842;28;20960;-69
2023/06/03 12:21:21;;;;;;;10.13;4.60;;;28.40;1.00;;;;;;5010491;28;20393;-69
2023/06/03 12:23:47;;;;;;;12.05;5.50;;;28.20;1.00;;;;;;5010138;28;20389;-69
2023/06/03 12:26:13;;;;;;;10.45;4.50;;;28.30;1.00;;;;;;5010631;28;20429;-69
2023/06/03 12:28:38;;;;;;;17.55;7.60;;;28.40;1.00;;;;;;5009896;28;20815;-68
2023/06/03 12:31:14;;;;;;;8.60;4.53;;;28.60;1.00;;;;;;5009712;28;20447;-69
2023/06/03 12:33:44;;;;;;;9.68;4.88;;;29.00;1.00;;;;;;5009295;28;20400;-69
2023/06/03 12:36:12;;;;;;;8.93;4.40;;;29.30;1.00;;;;;;5009482;28;20681;-69
2023/06/03 12:38:57;;;;;;;10.85;4.78;;;29.20;1.00;;;;;;5009517;28;20404;-69
2023/06/03 12:41:23;;;;;;;11.90;5.07;;;29.10;1.00;;;;;;5009894;28;20437;-69
2023/06/03 12:44:09;;;;;;;11.18;4.43;;;29.30;1.00;;;;;;5009365;28;20409;-69
2023/06/03 12:46:35;;;;;;;10.48;4.65;;;29.50;1.00;;;;;;5009571;28;20487;-70
2023/06/03 12:49:16;;;;;;;10.60;4.60;;;29.90;1.00;;;;;;5008829;28;20939;-70
2023/06/03 12:51:42;;;;;;;10.10;4.27;;;30.00;1.00;;;;;;5009163;28;20407;-70
2023/06/03 12:54:08;;;;;;;10.40;5.22;;;29.60;1.00;;;;;;5009026;28;20388;-70